sensor_id;sensor_type;location;lat;lon;timestamp;P1;durP1;ratioP1;P2;durP2;ratioP2
31974;SDS011;18500;43.618;1.474;2023-03-05T00:02:11;1157.80;;;996.60;;
31974;SDS011;18500;43.618;1.474;2023-03-05T00:04:37;1056.35;;;951.10;;
31974;SDS011;18500;43.618;1.474;2023-03-05T00:07:03;1152.05;;;999.90;;
31974;SDS011;18500;43.618;1.474;2023-03-05T00:09:29;1192.38;;;999.90;;
31974;SDS011;18500;43.618;1.474;2023-03-05T00:11:55;1105.28;;;985.42;;
31974;SDS011;18500;43.618;1.474;2023-03-05T00:14:21;1206.78;;;999.90;;
31974;SDS011;18500;43.618;1.474;2023-03-05T00:16:47;1214.18;;;999.90;;
31974;SDS011;18500;43.618;1.474;2023-03-05T00:19:12;1278.88;;;999.90;;
31974;SDS011;18500;43.618;1.474;2023-03-05T00:21:39;1149.82;;;996.92;;
31974;SDS011;18500;43.618;1.474;2023-03-05T00:24:07;1117.05;;;995.28;;
31974;SDS011;18500;43.618;1.474;2023-03-05T00:26:41;1064.13;;;956.28;;
31974;SDS011;18500;43.618;1.474;2023-03-05T00:29:07;1113.85;;;989.55;;
31974;SDS011;18500;43.618;1.474;2023-03-05T00:31:35;1194.57;;;999.90;;
31974;SDS011;18500;43.618;1.474;2023-03-05T00:34:06;1125.80;;;996.67;;
31974;SDS011;18500;43.618;1.474;2023-03-05T00:36:34;1222.38;;;999.90;;
31974;SDS011;18500;43.618;1.474;2023-03-05T00:39:03;1058.20;;;950.08;;
31974;SDS011;18500;43.618;1.474;2023-03-05T00:41:28;1203.88;;;999.90;;
31974;SDS011;18500;43.618;1.474;2023-03-05T00:43:54;1065.10;;;957.45;;
31974;SDS011;18500;43.618;1.474;2023-03-05T00:46:20;1081.25;;;971.35;;
31974;SDS011;18500;43.618;1.474;2023-03-05T00:48:46;1177.03;;;999.90;;
31974;SDS011;18500;43.618;1.474;2023-03-05T00:51:12;1195.90;;;999.90;;
31974;SDS011;18500;43.618;1.474;2023-03-05T00:53:38;1215.70;;;999.90;;
31974;SDS011;18500;43.618;1.474;2023-03-05T00:56:04;1242.28;;;999.90;;
31974;SDS011;18500;43.618;1.474;2023-03-05T00:58:30;1166.65;;;999.90;;
31974;SDS011;18500;43.618;1.474;2023-03-05T01:00:56;1106.35;;;993.75;;
31974;SDS011;18500;43.618;1.474;2023-03-05T01:03:23;1120.88;;;999.90;;
31974;SDS011;18500;43.618;1.474;2023-03-05T01:05:50;1040.88;;;939.47;;
31974;SDS011;18500;43.618;1.474;2023-03-05T01:08:15;975.20;;;878.80;;
31974;SDS011;18500;43.618;1.474;2023-03-05T01:10:41;1094.32;;;985.08;;
31974;SDS011;18500;43.618;1.474;2023-03-05T01:13:07;1073.85;;;972.78;;
31974;SDS011;18500;43.618;1.474;2023-03-05T01:15:33;1021.45;;;923.83;;
31974;SDS011;18500;43.618;1.474;2023-03-05T01:17:58;994.95;;;905.72;;
31974;SDS011;18500;43.618;1.474;2023-03-05T01:20:24;1584.95;;;999.90;;
31974;SDS011;18500;43.618;1.474;2023-03-05T01:22:49;1133.60;;;993.78;;
31974;SDS011;18500;43.618;1.474;2023-03-05T01:25:15;1075.63;;;967.78;;
31974;SDS011;18500;43.618;1.474;2023-03-05T01:27:41;1064.00;;;964.22;;
31974;SDS011;18500;43.618;1.474;2023-03-05T01:30:07;1069.72;;;962.67;;
31974;SDS011;18500;43.618;1.474;2023-03-05T01:32:34;1187.72;;;999.90;;
31974;SDS011;18500;43.618;1.474;2023-03-05T01:35:01;1056.30;;;949.80;;
31974;SDS011;18500;43.618;1.474;2023-03-05T01:37:28;1033.43;;;938.22;;
31974;SDS011;18500;43.618;1.474;2023-03-05T01:39:54;1003.88;;;914.72;;
31974;SDS011;18500;43.618;1.474;2023-03-05T01:42:19;1004.88;;;913.50;;
31974;SDS011;18500;43.618;1.474;2023-03-05T01:45:01;1016.50;;;920.50;;
31974;SDS011;18500;43.618;1.474;2023-03-05T01:47:30;1136.68;;;999.90;;
31974;SDS011;18500;43.618;1.474;2023-03-05T01:49:56;1032.18;;;932.33;;
31974;SDS011;18500;43.618;1.474;2023-03-05T01:52:22;1057.10;;;944.80;;
31974;SDS011;18500;43.618;1.474;2023-03-05T01:55:02;1122.53;;;995.40;;
31974;SDS011;18500;43.618;1.474;2023-03-05T01:59:59;906.55;;;817.70;;
31974;SDS011;18500;43.618;1.474;2023-03-05T02:02:35;929.55;;;844.85;;
31974;SDS011;18500;43.618;1.474;2023-03-05T02:05:02;938.03;;;850.33;;
31974;SDS011;18500;43.618;1.474;2023-03-05T02:07:30;1098.25;;;975.72;;
31974;SDS011;18500;43.618;1.474;2023-03-05T02:09:57;880.78;;;798.88;;
31974;SDS011;18500;43.618;1.474;2023-03-05T02:12:23;1030.65;;;930.13;;
31974;SDS011;18500;43.618;1.474;2023-03-05T02:14:50;963.85;;;874.47;;
31974;SDS011;18500;43.618;1.474;2023-03-05T02:17:23;682.65;;;627.67;;
31974;SDS011;18500;43.618;1.474;2023-03-05T02:19:54;969.60;;;876.42;;
31974;SDS011;18500;43.618;1.474;2023-03-05T02:22:26;1009.10;;;918.13;;
31974;SDS011;18500;43.618;1.474;2023-03-05T02:24:52;744.58;;;680.03;;
31974;SDS011;18500;43.618;1.474;2023-03-05T02:27:18;936.50;;;850.72;;
31974;SDS011;18500;43.618;1.474;2023-03-05T02:29:47;981.45;;;893.47;;
31974;SDS011;18500;43.618;1.474;2023-03-05T02:32:14;909.83;;;831.05;;
31974;SDS011;18500;43.618;1.474;2023-03-05T02:34:39;794.13;;;728.00;;
31974;SDS011;18500;43.618;1.474;2023-03-05T02:37:05;777.00;;;708.92;;
31974;SDS011;18500;43.618;1.474;2023-03-05T02:39:33;868.67;;;791.15;;
31974;SDS011;18500;43.618;1.474;2023-03-05T02:41:59;813.35;;;744.17;;
31974;SDS011;18500;43.618;1.474;2023-03-05T02:44:25;641.75;;;590.35;;
31974;SDS011;18500;43.618;1.474;2023-03-05T02:46:51;637.08;;;585.58;;
31974;SDS011;18500;43.618;1.474;2023-03-05T02:49:16;732.88;;;673.92;;
31974;SDS011;18500;43.618;1.474;2023-03-05T02:51:42;775.58;;;711.13;;
31974;SDS011;18500;43.618;1.474;2023-03-05T02:54:08;857.63;;;779.75;;
31974;SDS011;18500;43.618;1.474;2023-03-05T02:56:34;782.88;;;713.67;;
31974;SDS011;18500;43.618;1.474;2023-03-05T02:59:02;783.03;;;714.30;;
31974;SDS011;18500;43.618;1.474;2023-03-05T03:01:27;800.55;;;729.92;;
31974;SDS011;18500;43.618;1.474;2023-03-05T03:03:53;773.67;;;703.85;;
31974;SDS011;18500;43.618;1.474;2023-03-05T03:06:19;770.67;;;699.22;;
31974;SDS011;18500;43.618;1.474;2023-03-05T03:08:45;801.35;;;735.97;;
31974;SDS011;18500;43.618;1.474;2023-03-05T03:11:10;767.78;;;702.15;;
31974;SDS011;18500;43.618;1.474;2023-03-05T03:13:37;644.00;;;588.85;;
31974;SDS011;18500;43.618;1.474;2023-03-05T03:16:07;772.50;;;704.38;;
31974;SDS011;18500;43.618;1.474;2023-03-05T03:18:35;828.92;;;755.38;;
31974;SDS011;18500;43.618;1.474;2023-03-05T03:21:01;726.58;;;664.17;;
31974;SDS011;18500;43.618;1.474;2023-03-05T03:23:27;796.42;;;731.80;;
31974;SDS011;18500;43.618;1.474;2023-03-05T03:25:53;850.60;;;776.03;;
31974;SDS011;18500;43.618;1.474;2023-03-05T03:28:19;868.97;;;792.83;;
31974;SDS011;18500;43.618;1.474;2023-03-05T03:30:45;896.28;;;817.35;;
31974;SDS011;18500;43.618;1.474;2023-03-05T03:33:11;950.85;;;866.75;;
31974;SDS011;18500;43.618;1.474;2023-03-05T03:35:36;949.80;;;865.40;;
31974;SDS011;18500;43.618;1.474;2023-03-05T03:38:02;917.05;;;834.65;;
31974;SDS011;18500;43.618;1.474;2023-03-05T03:40:28;929.05;;;840.45;;
31974;SDS011;18500;43.618;1.474;2023-03-05T03:42:54;930.75;;;840.55;;
31974;SDS011;18500;43.618;1.474;2023-03-05T03:45:20;1031.47;;;933.90;;
31974;SDS011;18500;43.618;1.474;2023-03-05T03:47:49;1063.78;;;959.58;;
31974;SDS011;18500;43.618;1.474;2023-03-05T03:50:16;1034.03;;;935.38;;
31974;SDS011;18500;43.618;1.474;2023-03-05T03:52:42;1036.63;;;936.08;;
31974;SDS011;18500;43.618;1.474;2023-03-05T03:55:08;1057.05;;;954.47;;
31974;SDS011;18500;43.618;1.474;2023-03-05T03:57:35;1053.57;;;953.30;;
31974;SDS011;18500;43.618;1.474;2023-03-05T04:00:01;1041.22;;;937.80;;
31974;SDS011;18500;43.618;1.474;2023-03-05T04:02:31;1028.90;;;928.15;;
31974;SDS011;18500;43.618;1.474;2023-03-05T04:04:56;944.45;;;855.38;;
31974;SDS011;18500;43.618;1.474;2023-03-05T04:07:22;963.42;;;873.33;;
31974;SDS011;18500;43.618;1.474;2023-03-05T04:09:48;903.72;;;819.92;;
31974;SDS011;18500;43.618;1.474;2023-03-05T04:12:14;854.63;;;777.63;;
31974;SDS011;18500;43.618;1.474;2023-03-05T04:14:42;717.35;;;656.03;;
31974;SDS011;18500;43.618;1.474;2023-03-05T04:17:12;850.40;;;775.67;;
31974;SDS011;18500;43.618;1.474;2023-03-05T04:19:38;966.25;;;873.47;;
31974;SDS011;18500;43.618;1.474;2023-03-05T04:22:05;1100.65;;;990.15;;
31974;SDS011;18500;43.618;1.474;2023-03-05T04:24:40;1100.78;;;986.60;;
31974;SDS011;18500;43.618;1.474;2023-03-05T04:27:06;872.00;;;793.97;;
31974;SDS011;18500;43.618;1.474;2023-03-05T04:29:32;957.03;;;868.13;;
31974;SDS011;18500;43.618;1.474;2023-03-05T04:31:58;1071.28;;;956.25;;
31974;SDS011;18500;43.618;1.474;2023-03-05T04:34:23;1066.57;;;951.95;;
31974;SDS011;18500;43.618;1.474;2023-03-05T04:36:49;1129.85;;;999.08;;
31974;SDS011;18500;43.618;1.474;2023-03-05T04:39:15;1061.93;;;959.25;;
31974;SDS011;18500;43.618;1.474;2023-03-05T04:41:41;1000.28;;;908.53;;
31974;SDS011;18500;43.618;1.474;2023-03-05T04:44:07;878.97;;;801.45;;
31974;SDS011;18500;43.618;1.474;2023-03-05T04:46:32;769.15;;;703.65;;
31974;SDS011;18500;43.618;1.474;2023-03-05T04:48:58;1039.35;;;938.47;;
31974;SDS011;18500;43.618;1.474;2023-03-05T04:51:24;985.13;;;890.67;;
31974;SDS011;18500;43.618;1.474;2023-03-05T04:53:49;869.58;;;793.30;;
31974;SDS011;18500;43.618;1.474;2023-03-05T04:56:15;982.10;;;885.50;;
31974;SDS011;18500;43.618;1.474;2023-03-05T04:58:41;680.10;;;622.13;;
31974;SDS011;18500;43.618;1.474;2023-03-05T05:01:07;766.97;;;702.78;;
31974;SDS011;18500;43.618;1.474;2023-03-05T05:03:33;809.72;;;740.05;;
31974;SDS011;18500;43.618;1.474;2023-03-05T05:05:59;672.97;;;616.38;;
31974;SDS011;18500;43.618;1.474;2023-03-05T05:08:25;764.70;;;698.95;;
31974;SDS011;18500;43.618;1.474;2023-03-05T05:11:11;780.33;;;715.45;;
31974;SDS011;18500;43.618;1.474;2023-03-05T05:13:38;939.00;;;855.65;;
31974;SDS011;18500;43.618;1.474;2023-03-05T05:16:07;914.72;;;832.15;;
31974;SDS011;18500;43.618;1.474;2023-03-05T05:18:33;752.08;;;688.40;;
31974;SDS011;18500;43.618;1.474;2023-03-05T05:20:58;956.85;;;864.60;;
31974;SDS011;18500;43.618;1.474;2023-03-05T05:23:24;772.35;;;704.17;;
31974;SDS011;18500;43.618;1.474;2023-03-05T05:25:57;778.03;;;712.35;;
31974;SDS011;18500;43.618;1.474;2023-03-05T05:28:24;758.83;;;693.05;;
31974;SDS011;18500;43.618;1.474;2023-03-05T05:30:50;823.03;;;747.95;;
31974;SDS011;18500;43.618;1.474;2023-03-05T05:33:15;825.75;;;753.38;;
31974;SDS011;18500;43.618;1.474;2023-03-05T05:35:41;893.95;;;809.85;;
31974;SDS011;18500;43.618;1.474;2023-03-05T05:38:06;687.78;;;628.67;;
31974;SDS011;18500;43.618;1.474;2023-03-05T05:40:32;833.38;;;763.35;;
31974;SDS011;18500;43.618;1.474;2023-03-05T05:42:58;824.00;;;745.58;;
31974;SDS011;18500;43.618;1.474;2023-03-05T05:45:23;785.85;;;713.72;;
31974;SDS011;18500;43.618;1.474;2023-03-05T05:47:49;668.67;;;608.13;;
31974;SDS011;18500;43.618;1.474;2023-03-05T05:50:15;1019.47;;;913.80;;
31974;SDS011;18500;43.618;1.474;2023-03-05T05:52:41;927.28;;;844.70;;
31974;SDS011;18500;43.618;1.474;2023-03-05T05:55:07;1004.17;;;903.03;;
31974;SDS011;18500;43.618;1.474;2023-03-05T05:57:33;952.20;;;863.20;;
31974;SDS011;18500;43.618;1.474;2023-03-05T05:59:59;927.42;;;846.58;;
31974;SDS011;18500;43.618;1.474;2023-03-05T06:02:25;1011.83;;;914.33;;
31974;SDS011;18500;43.618;1.474;2023-03-05T06:04:51;1081.13;;;972.83;;
31974;SDS011;18500;43.618;1.474;2023-03-05T06:07:17;965.55;;;878.65;;
31974;SDS011;18500;43.618;1.474;2023-03-05T06:09:43;980.63;;;890.25;;
31974;SDS011;18500;43.618;1.474;2023-03-05T06:12:08;1023.42;;;924.92;;
31974;SDS011;18500;43.618;1.474;2023-03-05T06:14:35;1059.60;;;948.85;;
31974;SDS011;18500;43.618;1.474;2023-03-05T06:17:01;994.55;;;898.85;;
31974;SDS011;18500;43.618;1.474;2023-03-05T06:19:26;1005.53;;;906.10;;
31974;SDS011;18500;43.618;1.474;2023-03-05T06:21:52;1076.68;;;967.05;;
31974;SDS011;18500;43.618;1.474;2023-03-05T06:24:18;1018.00;;;917.92;;
31974;SDS011;18500;43.618;1.474;2023-03-05T06:26:44;1008.72;;;911.33;;
31974;SDS011;18500;43.618;1.474;2023-03-05T06:29:10;986.45;;;894.33;;
31974;SDS011;18500;43.618;1.474;2023-03-05T06:31:37;1006.75;;;911.90;;
31974;SDS011;18500;43.618;1.474;2023-03-05T06:34:03;996.63;;;903.83;;
31974;SDS011;18500;43.618;1.474;2023-03-05T06:36:29;992.83;;;901.35;;
31974;SDS011;18500;43.618;1.474;2023-03-05T06:38:55;1065.95;;;964.22;;
31974;SDS011;18500;43.618;1.474;2023-03-05T06:41:23;978.65;;;889.47;;
31974;SDS011;18500;43.618;1.474;2023-03-05T06:43:51;1022.22;;;924.00;;
31974;SDS011;18500;43.618;1.474;2023-03-05T06:46:19;945.88;;;859.33;;
31974;SDS011;18500;43.618;1.474;2023-03-05T06:48:46;929.95;;;842.28;;
31974;SDS011;18500;43.618;1.474;2023-03-05T06:51:22;913.35;;;829.95;;
31974;SDS011;18500;43.618;1.474;2023-03-05T06:53:50;988.47;;;883.45;;
31974;SDS011;18500;43.618;1.474;2023-03-05T06:56:17;1001.35;;;893.92;;
31974;SDS011;18500;43.618;1.474;2023-03-05T06:58:44;951.92;;;850.17;;
31974;SDS011;18500;43.618;1.474;2023-03-05T07:01:12;1067.68;;;957.83;;
31974;SDS011;18500;43.618;1.474;2023-03-05T07:03:39;853.60;;;777.45;;
31974;SDS011;18500;43.618;1.474;2023-03-05T07:06:06;997.00;;;904.83;;
31974;SDS011;18500;43.618;1.474;2023-03-05T07:08:34;889.95;;;808.67;;
31974;SDS011;18500;43.618;1.474;2023-03-05T07:11:00;1014.20;;;914.08;;
31974;SDS011;18500;43.618;1.474;2023-03-05T07:13:26;610.15;;;555.85;;
31974;SDS011;18500;43.618;1.474;2023-03-05T07:15:51;557.10;;;510.55;;
31974;SDS011;18500;43.618;1.474;2023-03-05T07:18:18;495.00;;;451.55;;
31974;SDS011;18500;43.618;1.474;2023-03-05T07:20:43;1081.38;;;965.97;;
31974;SDS011;18500;43.618;1.474;2023-03-05T07:23:09;986.63;;;893.05;;
31974;SDS011;18500;43.618;1.474;2023-03-05T07:25:35;1048.13;;;943.33;;
31974;SDS011;18500;43.618;1.474;2023-03-05T07:28:02;987.00;;;895.92;;
31974;SDS011;18500;43.618;1.474;2023-03-05T07:30:29;1005.60;;;913.83;;
31974;SDS011;18500;43.618;1.474;2023-03-05T07:32:55;996.65;;;904.92;;
31974;SDS011;18500;43.618;1.474;2023-03-05T07:35:21;1068.97;;;964.50;;
31974;SDS011;18500;43.618;1.474;2023-03-05T07:37:48;1139.65;;;999.90;;
31974;SDS011;18500;43.618;1.474;2023-03-05T07:40:14;938.45;;;845.85;;
31974;SDS011;18500;43.618;1.474;2023-03-05T07:42:40;989.67;;;893.50;;
31974;SDS011;18500;43.618;1.474;2023-03-05T07:45:06;871.67;;;796.40;;
31974;SDS011;18500;43.618;1.474;2023-03-05T07:47:32;1082.80;;;969.55;;
31974;SDS011;18500;43.618;1.474;2023-03-05T07:49:58;859.05;;;773.80;;
31974;SDS011;18500;43.618;1.474;2023-03-05T07:52:24;916.58;;;822.95;;
31974;SDS011;18500;43.618;1.474;2023-03-05T07:54:50;853.25;;;779.58;;
31974;SDS011;18500;43.618;1.474;2023-03-05T07:57:15;1001.03;;;894.30;;
31974;SDS011;18500;43.618;1.474;2023-03-05T07:59:41;879.40;;;785.38;;
31974;SDS011;18500;43.618;1.474;2023-03-05T08:02:09;957.53;;;853.72;;
31974;SDS011;18500;43.618;1.474;2023-03-05T08:04:35;991.88;;;892.13;;
31974;SDS011;18500;43.618;1.474;2023-03-05T08:07:02;1022.65;;;921.70;;
31974;SDS011;18500;43.618;1.474;2023-03-05T08:09:28;1006.55;;;904.45;;
31974;SDS011;18500;43.618;1.474;2023-03-05T08:11:54;1004.60;;;911.42;;
31974;SDS011;18500;43.618;1.474;2023-03-05T08:14:20;947.53;;;856.90;;
31974;SDS011;18500;43.618;1.474;2023-03-05T08:16:46;965.03;;;872.58;;
31974;SDS011;18500;43.618;1.474;2023-03-05T08:19:16;1016.35;;;909.97;;
31974;SDS011;18500;43.618;1.474;2023-03-05T08:21:42;815.38;;;740.03;;
31974;SDS011;18500;43.618;1.474;2023-03-05T08:24:07;893.80;;;813.20;;
31974;SDS011;18500;43.618;1.474;2023-03-05T08:26:35;921.83;;;836.47;;
31974;SDS011;18500;43.618;1.474;2023-03-05T08:29:02;857.63;;;776.25;;
31974;SDS011;18500;43.618;1.474;2023-03-05T08:31:28;970.28;;;870.80;;
31974;SDS011;18500;43.618;1.474;2023-03-05T08:33:55;1049.55;;;940.75;;
31974;SDS011;18500;43.618;1.474;2023-03-05T08:36:21;972.33;;;877.47;;
31974;SDS011;18500;43.618;1.474;2023-03-05T08:38:47;997.78;;;889.35;;
31974;SDS011;18500;43.618;1.474;2023-03-05T08:41:16;1043.57;;;935.58;;
31974;SDS011;18500;43.618;1.474;2023-03-05T08:43:43;950.70;;;857.60;;
31974;SDS011;18500;43.618;1.474;2023-03-05T08:46:09;891.00;;;802.53;;
31974;SDS011;18500;43.618;1.474;2023-03-05T08:48:36;909.72;;;826.50;;
31974;SDS011;18500;43.618;1.474;2023-03-05T08:51:15;807.47;;;733.17;;
31974;SDS011;18500;43.618;1.474;2023-03-05T08:53:43;732.33;;;665.50;;
31974;SDS011;18500;43.618;1.474;2023-03-05T08:56:09;872.38;;;791.58;;
31974;SDS011;18500;43.618;1.474;2023-03-05T08:58:35;938.95;;;849.63;;
31974;SDS011;18500;43.618;1.474;2023-03-05T09:01:01;842.13;;;764.35;;
31974;SDS011;18500;43.618;1.474;2023-03-05T09:03:27;913.08;;;822.65;;
31974;SDS011;18500;43.618;1.474;2023-03-05T09:05:53;991.92;;;892.92;;
31974;SDS011;18500;43.618;1.474;2023-03-05T09:08:23;1072.85;;;956.33;;
31974;SDS011;18500;43.618;1.474;2023-03-05T09:10:49;1146.80;;;980.03;;
31974;SDS011;18500;43.618;1.474;2023-03-05T09:13:15;1205.55;;;996.63;;
31974;SDS011;18500;43.618;1.474;2023-03-05T09:15:40;1379.28;;;999.90;;
31974;SDS011;18500;43.618;1.474;2023-03-05T09:18:06;1207.72;;;999.90;;
31974;SDS011;18500;43.618;1.474;2023-03-05T09:20:33;1343.32;;;999.90;;
31974;SDS011;18500;43.618;1.474;2023-03-05T09:23:00;1357.82;;;999.90;;
31974;SDS011;18500;43.618;1.474;2023-03-05T09:25:26;1619.60;;;999.90;;
31974;SDS011;18500;43.618;1.474;2023-03-05T09:27:51;1331.93;;;999.90;;
31974;SDS011;18500;43.618;1.474;2023-03-05T09:30:18;1575.75;;;999.90;;
31974;SDS011;18500;43.618;1.474;2023-03-05T09:32:44;1541.47;;;999.90;;
31974;SDS011;18500;43.618;1.474;2023-03-05T09:35:10;1211.30;;;999.90;;
31974;SDS011;18500;43.618;1.474;2023-03-05T09:37:35;1123.05;;;997.33;;
31974;SDS011;18500;43.618;1.474;2023-03-05T09:40:01;1089.85;;;970.08;;
31974;SDS011;18500;43.618;1.474;2023-03-05T09:42:29;1076.88;;;962.28;;
31974;SDS011;18500;43.618;1.474;2023-03-05T09:51:11;880.83;;;806.97;;
31974;SDS011;18500;43.618;1.474;2023-03-05T09:53:52;881.25;;;803.33;;
31974;SDS011;18500;43.618;1.474;2023-03-05T09:56:35;797.85;;;729.70;;
31974;SDS011;18500;43.618;1.474;2023-03-05T09:59:13;848.03;;;768.85;;
31974;SDS011;18500;43.618;1.474;2023-03-05T10:01:47;1085.82;;;969.75;;
31974;SDS011;18500;43.618;1.474;2023-03-05T10:04:15;1235.68;;;999.90;;
31974;SDS011;18500;43.618;1.474;2023-03-05T10:06:59;828.55;;;759.22;;
31974;SDS011;18500;43.618;1.474;2023-03-05T10:12:09;1145.72;;;941.50;;
31974;SDS011;18500;43.618;1.474;2023-03-05T10:14:49;1306.35;;;991.88;;
31974;SDS011;18500;43.618;1.474;2023-03-05T10:28:23;1203.13;;;983.95;;
31974;SDS011;18500;43.618;1.474;2023-03-05T10:31:18;1033.30;;;933.33;;
31974;SDS011;18500;43.618;1.474;2023-03-05T10:45:13;602.13;;;558.10;;
31974;SDS011;18500;43.618;1.474;2023-03-05T10:50:17;620.42;;;576.90;;
31974;SDS011;18500;43.618;1.474;2023-03-05T10:53:18;539.17;;;500.35;;
31974;SDS011;18500;43.618;1.474;2023-03-05T10:55:51;657.03;;;606.70;;
31974;SDS011;18500;43.618;1.474;2023-03-05T10:58:20;590.95;;;549.35;;
31974;SDS011;18500;43.618;1.474;2023-03-05T11:01:18;516.08;;;478.27;;
31974;SDS011;18500;43.618;1.474;2023-03-05T11:06:36;658.90;;;603.78;;
31974;SDS011;18500;43.618;1.474;2023-03-05T11:11:37;858.63;;;791.10;;
31974;SDS011;18500;43.618;1.474;2023-03-05T11:14:02;851.85;;;784.90;;
31974;SDS011;18500;43.618;1.474;2023-03-05T11:16:29;759.17;;;692.03;;
31974;SDS011;18500;43.618;1.474;2023-03-05T11:24:34;755.63;;;696.80;;
31974;SDS011;18500;43.618;1.474;2023-03-05T11:27:01;974.10;;;882.60;;
31974;SDS011;18500;43.618;1.474;2023-03-05T11:29:48;784.72;;;722.22;;
31974;SDS011;18500;43.618;1.474;2023-03-05T11:32:24;921.05;;;838.70;;
31974;SDS011;18500;43.618;1.474;2023-03-05T11:34:52;1119.50;;;999.33;;
31974;SDS011;18500;43.618;1.474;2023-03-05T11:37:29;1202.55;;;999.90;;
31974;SDS011;18500;43.618;1.474;2023-03-05T11:45:18;1102.07;;;994.58;;
31974;SDS011;18500;43.618;1.474;2023-03-05T11:47:46;1132.28;;;999.90;;
31974;SDS011;18500;43.618;1.474;2023-03-05T11:55:48;745.03;;;682.83;;
31974;SDS011;18500;43.618;1.474;2023-03-05T12:01:00;1067.40;;;965.65;;
31974;SDS011;18500;43.618;1.474;2023-03-05T12:03:34;1006.15;;;919.35;;
31974;SDS011;18500;43.618;1.474;2023-03-05T12:06:12;706.00;;;653.28;;
31974;SDS011;18500;43.618;1.474;2023-03-05T12:08:53;758.25;;;698.85;;
31974;SDS011;18500;43.618;1.474;2023-03-05T12:11:30;962.92;;;872.83;;
31974;SDS011;18500;43.618;1.474;2023-03-05T12:19:28;769.35;;;713.20;;
31974;SDS011;18500;43.618;1.474;2023-03-05T12:22:19;811.53;;;747.25;;
31974;SDS011;18500;43.618;1.474;2023-03-05T12:24:46;550.53;;;510.92;;
31974;SDS011;18500;43.618;1.474;2023-03-05T12:27:13;624.00;;;574.75;;
31974;SDS011;18500;43.618;1.474;2023-03-05T12:42:50;419.90;;;391.92;;
31974;SDS011;18500;43.618;1.474;2023-03-05T12:45:24;387.65;;;363.27;;
31974;SDS011;18500;43.618;1.474;2023-03-05T12:58:14;197.77;;;183.95;;
31974;SDS011;18500;43.618;1.474;2023-03-05T13:00:49;326.33;;;304.33;;
31974;SDS011;18500;43.618;1.474;2023-03-05T13:03:22;173.65;;;161.48;;
31974;SDS011;18500;43.618;1.474;2023-03-05T13:05:52;208.77;;;194.10;;
31974;SDS011;18500;43.618;1.474;2023-03-05T13:08:24;179.70;;;167.13;;
31974;SDS011;18500;43.618;1.474;2023-03-05T13:13:21;352.58;;;330.67;;
31974;SDS011;18500;43.618;1.474;2023-03-05T13:15:50;526.35;;;489.48;;
31974;SDS011;18500;43.618;1.474;2023-03-05T13:20:47;422.90;;;395.77;;
31974;SDS011;18500;43.618;1.474;2023-03-05T13:23:20;507.52;;;474.70;;
31974;SDS011;18500;43.618;1.474;2023-03-05T13:28:42;625.13;;;583.47;;
31974;SDS011;18500;43.618;1.474;2023-03-05T13:31:16;684.38;;;637.63;;
31974;SDS011;18500;43.618;1.474;2023-03-05T13:34:07;755.30;;;702.67;;
31974;SDS011;18500;43.618;1.474;2023-03-05T13:36:39;761.55;;;707.92;;
31974;SDS011;18500;43.618;1.474;2023-03-05T13:39:43;714.83;;;665.40;;
31974;SDS011;18500;43.618;1.474;2023-03-05T13:42:16;644.00;;;599.67;;
31974;SDS011;18500;43.618;1.474;2023-03-05T13:44:43;490.77;;;459.70;;
31974;SDS011;18500;43.618;1.474;2023-03-05T13:47:19;439.73;;;412.92;;
31974;SDS011;18500;43.618;1.474;2023-03-05T13:49:53;500.10;;;467.58;;
31974;SDS011;18500;43.618;1.474;2023-03-05T13:52:24;466.77;;;437.17;;
31974;SDS011;18500;43.618;1.474;2023-03-05T13:54:55;646.10;;;599.25;;
31974;SDS011;18500;43.618;1.474;2023-03-05T13:57:39;547.60;;;509.60;;
31974;SDS011;18500;43.618;1.474;2023-03-05T14:02:56;888.97;;;819.63;;
31974;SDS011;18500;43.618;1.474;2023-03-05T14:05:25;815.40;;;752.70;;
31974;SDS011;18500;43.618;1.474;2023-03-05T14:07:52;753.55;;;696.63;;
31974;SDS011;18500;43.618;1.474;2023-03-05T14:10:36;841.92;;;777.75;;
31974;SDS011;18500;43.618;1.474;2023-03-05T14:13:10;507.73;;;473.38;;
31974;SDS011;18500;43.618;1.474;2023-03-05T14:15:41;790.47;;;730.25;;
31974;SDS011;18500;43.618;1.474;2023-03-05T14:20:35;596.47;;;554.75;;
31974;SDS011;18500;43.618;1.474;2023-03-05T14:23:01;824.28;;;762.42;;
31974;SDS011;18500;43.618;1.474;2023-03-05T14:25:49;816.67;;;755.25;;
31974;SDS011;18500;43.618;1.474;2023-03-05T14:30:47;831.58;;;769.20;;
31974;SDS011;18500;43.618;1.474;2023-03-05T14:33:20;837.08;;;774.15;;
31974;SDS011;18500;43.618;1.474;2023-03-05T14:35:51;593.25;;;550.25;;
31974;SDS011;18500;43.618;1.474;2023-03-05T14:38:22;596.05;;;554.33;;
31974;SDS011;18500;43.618;1.474;2023-03-05T14:40:50;735.13;;;681.63;;
31974;SDS011;18500;43.618;1.474;2023-03-05T14:43:16;822.45;;;762.22;;
31974;SDS011;18500;43.618;1.474;2023-03-05T14:45:42;797.25;;;737.90;;
31974;SDS011;18500;43.618;1.474;2023-03-05T14:48:09;375.73;;;353.05;;
31974;SDS011;18500;43.618;1.474;2023-03-05T14:53:18;531.55;;;492.60;;
31974;SDS011;18500;43.618;1.474;2023-03-05T14:55:45;454.73;;;424.60;;
31974;SDS011;18500;43.618;1.474;2023-03-05T14:58:18;724.28;;;672.60;;
31974;SDS011;18500;43.618;1.474;2023-03-05T15:00:46;712.38;;;662.33;;
31974;SDS011;18500;43.618;1.474;2023-03-05T15:03:13;572.17;;;530.97;;
31974;SDS011;18500;43.618;1.474;2023-03-05T15:05:40;733.05;;;680.50;;
31974;SDS011;18500;43.618;1.474;2023-03-05T15:08:12;739.08;;;685.53;;
31974;SDS011;18500;43.618;1.474;2023-03-05T15:10:59;610.30;;;566.95;;
31974;SDS011;18500;43.618;1.474;2023-03-05T15:13:25;697.75;;;647.85;;
31974;SDS011;18500;43.618;1.474;2023-03-05T15:15:51;648.58;;;600.83;;
31974;SDS011;18500;43.618;1.474;2023-03-05T15:18:18;577.15;;;537.58;;
31974;SDS011;18500;43.618;1.474;2023-03-05T15:20:45;670.53;;;622.00;;
31974;SDS011;18500;43.618;1.474;2023-03-05T15:23:17;516.67;;;480.55;;
31974;SDS011;18500;43.618;1.474;2023-03-05T15:25:43;520.95;;;484.58;;
31974;SDS011;18500;43.618;1.474;2023-03-05T15:28:08;432.10;;;403.27;;
31974;SDS011;18500;43.618;1.474;2023-03-05T15:30:35;489.90;;;455.65;;
31974;SDS011;18500;43.618;1.474;2023-03-05T15:33:04;447.73;;;416.38;;
31974;SDS011;18500;43.618;1.474;2023-03-05T15:35:31;396.33;;;369.13;;
31974;SDS011;18500;43.618;1.474;2023-03-05T15:37:57;556.17;;;516.60;;
31974;SDS011;18500;43.618;1.474;2023-03-05T15:40:23;393.58;;;366.75;;
31974;SDS011;18500;43.618;1.474;2023-03-05T15:42:51;645.75;;;599.35;;
31974;SDS011;18500;43.618;1.474;2023-03-05T15:45:18;454.98;;;422.48;;
31974;SDS011;18500;43.618;1.474;2023-03-05T15:47:44;633.55;;;589.25;;